Time;durP1;ratioP1;P1;durP2;ratioP2;P2;SDS_P1;SDS_P2;PMS_P1;PMS_P2;Temp;Humidity;BMP_temperature;BMP_pressure;BME280_temperature;BME280_humidity;BME280_pressure;Samples;Min_cycle;Max_cycle;Signal;HPM_P1;HPM_P2
2023/06/28 00:01:00;;;;;;;10.93;9.40;;;;;;;;;;4992510;28;20033;-77
2023/06/28 00:03:26;;;;;;;9.48;8.68;;;;;;;;;;4991685;28;20504;-78
2023/06/28 00:05:52;;;;;;;9.52;8.73;;;;;;;;;;4991592;28;20029;-78
2023/06/28 00:08:18;;;;;;;9.85;9.05;;;;;;;;;;4992755;28;20061;-79
2023/06/28 00:10:44;;;;;;;9.90;9.10;;;;;;;;;;4992715;28;20517;-78
2023/06/28 00:13:11;;;;;;;10.10;9.20;;;;;;;;;;4992612;28;20038;-78
2023/06/28 00:15:36;;;;;;;10.65;9.75;;;;;;;;;;4992869;28;20042;-78
2023/06/28 00:18:02;;;;;;;9.88;8.98;;;;;;;;;;4992871;28;20049;-78
2023/06/28 00:20:28;;;;;;;9.85;8.85;;;;;;;;;;4992911;28;20417;-77
2023/06/28 00:22:55;;;;;;;11.48;10.55;;;;;;;;;;4994544;28;20046;-77
2023/06/28 00:25:21;;;;;;;10.82;9.82;;;;;;;;;;5008302;28;20096;-79
2023/06/28 00:27:47;;;;;;;10.40;9.50;;;;;;;;;;4994775;28;20541;-77
2023/06/28 00:30:13;;;;;;;10.20;9.30;;;;;;;;;;4991211;28;20049;-78
2023/06/28 00:32:39;;;;;;;11.55;10.55;;;;;;;;;;4990905;28;20464;-78
2023/06/28 00:35:06;;;;;;;11.05;9.98;;;;;;;;;;4958927;28;20042;-78
2023/06/28 00:37:33;;;;;;;12.07;10.90;;;;;;;;;;4992151;28;20041;-78
2023/06/28 00:39:59;;;;;;;11.60;10.05;;;;;;;;;;4992320;28;20042;-78
2023/06/28 00:42:25;;;;;;;11.68;10.48;;;;;;;;;;4991826;28;20039;-77
2023/06/28 00:44:53;;;;;;;13.50;10.20;;;;;;;;;;4974761;28;20076;-77
2023/06/28 00:47:19;;;;;;;11.27;10.27;;;;;;;;;;4992018;28;20030;-78
2023/06/28 00:49:46;;;;;;;11.32;10.23;;;;;;;;;;4991894;28;20137;-78
2023/06/28 00:52:12;;;;;;;11.57;10.48;;;;;;;;;;4990684;28;20509;-78
2023/06/28 00:54:38;;;;;;;12.70;11.13;;;;;;;;;;4990886;28;20041;-77
2023/06/28 00:57:04;;;;;;;12.63;11.02;;;;;;;;;;4991938;28;20133;-78
2023/06/28 00:59:30;;;;;;;11.50;10.52;;;;;;;;;;4991975;28;20030;-78
2023/06/28 01:01:56;;;;;;;12.32;11.07;;;;;;;;;;4991420;28;20046;-78
2023/06/28 01:04:22;;;;;;;11.80;10.70;;;;;;;;;;4991213;28;20045;-78
2023/06/28 01:06:51;;;;;;;13.15;11.80;;;;;;;;;;4974130;28;20084;-78
2023/06/28 01:09:18;;;;;;;12.38;11.27;;;;;;;;;;4974465;28;20045;-78
2023/06/28 01:11:44;;;;;;;12.95;11.88;;;;;;;;;;4973815;28;20254;-79
2023/06/28 01:14:11;;;;;;;12.77;11.48;;;;;;;;;;4991408;28;20030;-79
2023/06/28 01:16:37;;;;;;;11.75;10.52;;;;;;;;;;4990268;28;20046;-79
2023/06/28 01:19:03;;;;;;;12.38;11.18;;;;;;;;;;4990079;28;20121;-78
2023/06/28 01:21:31;;;;;;;12.45;11.20;;;;;;;;;;4991515;28;20516;-78
2023/06/28 01:24:00;;;;;;;11.55;10.50;;;;;;;;;;4990000;28;20069;-77
2023/06/28 01:26:26;;;;;;;11.52;10.55;;;;;;;;;;4990310;28;20116;-78
2023/06/28 01:28:52;;;;;;;14.43;11.23;;;;;;;;;;4990149;28;20034;-79
2023/06/28 01:31:18;;;;;;;11.90;10.80;;;;;;;;;;4991570;28;20477;-78
2023/06/28 01:33:46;;;;;;;11.90;10.80;;;;;;;;;;4991215;28;20033;-77
2023/06/28 01:36:12;;;;;;;12.18;10.98;;;;;;;;;;4989862;28;20030;-78
2023/06/28 01:38:38;;;;;;;10.32;9.43;;;;;;;;;;4989983;28;20038;-79
2023/06/28 01:41:04;;;;;;;12.27;9.98;;;;;;;;;;4989689;28;20449;-78
2023/06/28 01:43:31;;;;;;;10.30;9.43;;;;;;;;;;4973723;28;20050;-77
2023/06/28 01:45:57;;;;;;;10.70;9.65;;;;;;;;;;4990057;28;20053;-78
2023/06/28 01:48:24;;;;;;;10.85;9.95;;;;;;;;;;4989548;28;20038;-77
2023/06/28 01:50:49;;;;;;;10.55;9.65;;;;;;;;;;4973737;28;20038;-77
2023/06/28 01:53:16;;;;;;;11.38;9.07;;;;;;;;;;4989640;28;20413;-79
2023/06/28 01:55:43;;;;;;;9.65;8.80;;;;;;;;;;4990022;28;20034;-78
2023/06/28 01:58:11;;;;;;;10.70;9.70;;;;;;;;;;4989453;28;20034;-78
2023/06/28 02:00:37;;;;;;;10.32;9.40;;;;;;;;;;4991036;28;20546;-79
2023/06/28 02:03:04;;;;;;;11.07;9.95;;;;;;;;;;4989600;28;20125;-79
2023/06/28 02:05:30;;;;;;;10.60;9.70;;;;;;;;;;4990613;28;20413;-78
2023/06/28 02:07:56;;;;;;;13.23;9.70;;;;;;;;;;4990784;28;20046;-78
2023/06/28 02:10:23;;;;;;;10.90;9.90;;;;;;;;;;4990778;28;20528;-77
2023/06/28 02:12:51;;;;;;;9.90;9.05;;;;;;;;;;4991302;28;20504;-78
2023/06/28 02:15:19;;;;;;;10.68;9.65;;;;;;;;;;4996889;28;20038;-78
2023/06/28 02:17:45;;;;;;;10.48;9.50;;;;;;;;;;5008502;28;20132;-78
2023/06/28 02:20:12;;;;;;;10.43;9.52;;;;;;;;;;5003875;28;20042;-79
2023/06/28 02:22:39;;;;;;;10.32;9.43;;;;;;;;;;4992612;28;20027;-79
2023/06/28 02:25:06;;;;;;;10.98;9.98;;;;;;;;;;4993574;28;20042;-77
2023/06/28 02:27:32;;;;;;;11.32;10.23;;;;;;;;;;4994679;28;20030;-76
2023/06/28 02:29:58;;;;;;;11.32;10.15;;;;;;;;;;4994601;28;20459;-75
2023/06/28 02:32:24;;;;;;;12.35;10.50;;;;;;;;;;4994396;28;20121;-76
2023/06/28 02:34:51;;;;;;;12.32;10.60;;;;;;;;;;4994449;28;20108;-76
2023/06/28 02:37:16;;;;;;;12.85;11.55;;;;;;;;;;4994474;28;20038;-76
2023/06/28 02:39:42;;;;;;;12.38;11.02;;;;;;;;;;4977062;28;20070;-77
2023/06/28 02:42:08;;;;;;;11.23;10.40;;;;;;;;;;4994384;28;20045;-78
2023/06/28 02:44:35;;;;;;;12.07;10.95;;;;;;;;;;4993129;28;20512;-78
2023/06/28 02:47:02;;;;;;;11.98;11.02;;;;;;;;;;4993238;28;20037;-77
2023/06/28 02:49:28;;;;;;;14.57;13.18;;;;;;;;;;4992635;28;20054;-76
2023/06/28 02:51:54;;;;;;;11.98;10.98;;;;;;;;;;4993083;28;20026;-78
2023/06/28 02:54:22;;;;;;;10.93;9.95;;;;;;;;;;4976677;28;20501;-78
2023/06/28 02:56:48;;;;;;;11.88;10.77;;;;;;;;;;4993037;28;20532;-76
2023/06/28 02:59:16;;;;;;;12.07;10.90;;;;;;;;;;4993915;28;20038;-79
2023/06/28 03:01:43;;;;;;;12.55;11.45;;;;;;;;;;4976614;28;20069;-77
2023/06/28 03:04:10;;;;;;;10.63;9.75;;;;;;;;;;4992765;28;20053;-77
2023/06/28 03:06:36;;;;;;;10.05;9.07;;;;;;;;;;4992867;28;20554;-79
2023/06/28 03:09:02;;;;;;;11.40;10.30;;;;;;;;;;4994159;28;20056;-79
2023/06/28 03:11:28;;;;;;;11.52;10.30;;;;;;;;;;4976398;28;20426;-76
2023/06/28 03:13:54;;;;;;;10.07;9.18;;;;;;;;;;4992458;28;20038;-78
2023/06/28 03:16:21;;;;;;;11.20;10.15;;;;;;;;;;4976174;28;20129;-78
2023/06/28 03:18:47;;;;;;;11.52;10.32;;;;;;;;;;4976403;28;20069;-78
2023/06/28 03:21:14;;;;;;;9.80;9.00;;;;;;;;;;4992653;28;20502;-81
2023/06/28 03:23:39;;;;;;;11.77;10.77;;;;;;;;;;4976498;28;20599;-81
2023/06/28 03:26:05;;;;;;;9.50;8.80;;;;;;;;;;4994004;28;20038;-79
2023/06/28 03:28:31;;;;;;;10.70;9.75;;;;;;;;;;4992643;28;20046;-81
2023/06/28 03:30:58;;;;;;;9.85;9.02;;;;;;;;;;4994139;28;20066;-81
2023/06/28 03:33:24;;;;;;;10.23;9.32;;;;;;;;;;4992406;28;20038;-80
2023/06/28 03:35:50;;;;;;;9.07;8.30;;;;;;;;;;4993334;28;20041;-81
2023/06/28 03:38:16;;;;;;;8.27;7.70;;;;;;;;;;4993413;28;20420;-82
2023/06/28 03:40:42;;;;;;;9.43;8.68;;;;;;;;;;4992677;28;20034;-80
2023/06/28 03:43:08;;;;;;;8.60;7.97;;;;;;;;;;4992360;28;20525;-81
2023/06/28 03:45:36;;;;;;;8.90;8.00;;;;;;;;;;4992371;28;20034;-82
2023/06/28 03:48:02;;;;;;;8.88;8.00;;;;;;;;;;4992406;28;20030;-80
2023/06/28 03:50:29;;;;;;;8.57;7.88;;;;;;;;;;4993412;28;20379;-80
2023/06/28 03:52:55;;;;;;;8.85;8.15;;;;;;;;;;4993760;28;20087;-79
2023/06/28 03:55:21;;;;;;;8.60;7.90;;;;;;;;;;4991897;28;20525;-80
2023/06/28 03:57:47;;;;;;;10.15;7.20;;;;;;;;;;4992320;28;20520;-80
2023/06/28 04:00:15;;;;;;;8.95;8.25;;;;;;;;;;4992018;28;20042;-80
2023/06/28 04:02:44;;;;;;;10.90;7.90;;;;;;;;;;4993658;28;20532;-80
2023/06/28 04:05:10;;;;;;;8.10;7.50;;;;;;;;;;4992569;28;20042;-81
2023/06/28 04:07:36;;;;;;;8.77;8.18;;;;;;;;;;5008945;28;20066;-82
2023/06/28 04:10:02;;;;;;;8.93;8.18;;;;;;;;;;4998130;28;20155;-80
2023/06/28 04:12:31;;;;;;;8.90;8.20;;;;;;;;;;4993980;28;20057;-80
2023/06/28 04:14:57;;;;;;;8.52;7.53;;;;;;;;;;4993276;28;20050;-83
2023/06/28 04:17:23;;;;;;;8.10;7.55;;;;;;;;;;4991644;28;20509;-81
2023/06/28 04:19:49;;;;;;;8.05;7.45;;;;;;;;;;4992965;28;20061;-80
2023/06/28 04:22:15;;;;;;;9.23;8.52;;;;;;;;;;4993088;28;20062;-80
2023/06/28 04:24:41;;;;;;;8.32;7.60;;;;;;;;;;4993195;28;20525;-80
2023/06/28 04:27:09;;;;;;;7.70;7.10;;;;;;;;;;4992967;28;20073;-80
2023/06/28 04:29:35;;;;;;;7.70;7.07;;;;;;;;;;4992606;28;20125;-81
2023/06/28 04:32:02;;;;;;;7.88;7.28;;;;;;;;;;4992907;28;20049;-80
2023/06/28 04:34:28;;;;;;;8.35;7.10;;;;;;;;;;4992457;28;20042;-79
2023/06/28 04:36:56;;;;;;;8.13;7.50;;;;;;;;;;4992691;28;20041;-82
2023/06/28 04:39:23;;;;;;;10.57;8.27;;;;;;;;;;4992291;28;20037;-81
2023/06/28 04:41:51;;;;;;;9.18;8.27;;;;;;;;;;4992444;28;20053;-79
2023/06/28 04:44:17;;;;;;;8.50;7.68;;;;;;;;;;4992241;28;20053;-82
2023/06/28 04:46:44;;;;;;;8.63;7.82;;;;;;;;;;4990179;28;20038;-79
2023/06/28 04:49:10;;;;;;;8.27;7.68;;;;;;;;;;4992038;28;20057;-80
2023/06/28 04:51:36;;;;;;;8.88;7.90;;;;;;;;;;4992240;28;20141;-80
2023/06/28 04:54:02;;;;;;;9.40;8.55;;;;;;;;;;4992568;28;20122;-82
2023/06/28 04:56:29;;;;;;;7.78;7.00;;;;;;;;;;4992231;28;20065;-78
2023/06/28 04:58:55;;;;;;;8.38;7.68;;;;;;;;;;4992237;28;20037;-81
2023/06/28 05:01:22;;;;;;;7.60;7.00;;;;;;;;;;4990851;28;20038;-80
2023/06/28 05:03:48;;;;;;;7.88;7.20;;;;;;;;;;4991901;28;20077;-80
2023/06/28 05:06:14;;;;;;;8.13;7.53;;;;;;;;;;4990873;28;20070;-80
2023/06/28 05:08:39;;;;;;;7.88;7.28;;;;;;;;;;4991918;28;20069;-82
2023/06/28 05:11:07;;;;;;;7.60;7.00;;;;;;;;;;4992429;28;20044;-81
2023/06/28 05:13:33;;;;;;;8.40;7.80;;;;;;;;;;4974814;28;20170;-81
2023/06/28 05:15:59;;;;;;;9.90;6.95;;;;;;;;;;4974665;28;20038;-80
2023/06/28 05:18:25;;;;;;;7.20;6.70;;;;;;;;;;4990960;28;20121;-81
2023/06/28 05:20:51;;;;;;;7.07;6.25;;;;;;;;;;4976210;28;20505;-81
2023/06/28 05:23:17;;;;;;;6.80;6.20;;;;;;;;;;4992895;28;20103;-79
2023/06/28 05:25:44;;;;;;;7.47;6.93;;;;;;;;;;4992989;28;20034;-77
2023/06/28 05:28:13;;;;;;;6.10;5.60;;;;;;;;;;5001033;28;20038;-79
2023/06/28 05:30:39;;;;;;;7.10;6.60;;;;;;;;;;5002893;28;20037;-80
2023/06/28 05:33:05;;;;;;;5.18;4.65;;;;;;;;;;4996600;28;20066;-77
2023/06/28 05:35:32;;;;;;;4.97;4.55;;;;;;;;;;4991604;28;20035;-79
2023/06/28 05:37:58;;;;;;;6.70;6.18;;;;;;;;;;4990191;28;20136;-80
2023/06/28 05:40:26;;;;;;;5.95;5.30;;;;;;;;;;4973816;28;20037;-80
2023/06/28 05:42:53;;;;;;;4.70;4.40;;;;;;;;;;4991952;28;20038;-81
2023/06/28 05:45:22;;;;;;;6.05;5.65;;;;;;;;;;4991905;28;20108;-80
2023/06/28 05:47:49;;;;;;;5.88;5.32;;;;;;;;;;4991461;28;20034;-79
2023/06/28 05:50:16;;;;;;;5.70;5.20;;;;;;;;;;4989955;28;20406;-80
2023/06/28 05:52:45;;;;;;;5.68;5.28;;;;;;;;;;4989927;28;20651;-81
2023/06/28 05:55:12;;;;;;;6.07;5.40;;;;;;;;;;4991967;28;20034;-81
2023/06/28 05:57:39;;;;;;;5.50;5.10;;;;;;;;;;5002954;28;20042;-81
2023/06/28 06:00:05;;;;;;;9.75;5.30;;;;;;;;;;4995084;28;20062;-80
2023/06/28 06:02:33;;;;;;;5.03;4.63;;;;;;;;;;4991166;28;20409;-79
2023/06/28 06:04:59;;;;;;;5.28;4.78;;;;;;;;;;4989682;28;20100;-80
2023/06/28 06:07:25;;;;;;;6.40;6.00;;;;;;;;;;4989888;28;20039;-81
2023/06/28 06:09:53;;;;;;;7.07;5.05;;;;;;;;;;4990823;28;20078;-80
2023/06/28 06:12:19;;;;;;;5.07;4.68;;;;;;;;;;4991391;28;20714;-81
2023/06/28 06:14:45;;;;;;;5.45;5.05;;;;;;;;;;4990821;28;20042;-81
2023/06/28 06:17:11;;;;;;;5.25;4.82;;;;;;;;;;4991076;28;20046;-79
2023/06/28 06:19:37;;;;;;;5.70;5.30;;;;;;;;;;4990608;28;20045;-81
2023/06/28 06:22:03;;;;;;;5.28;4.97;;;;;;;;;;4990999;28;20038;-81
2023/06/28 06:24:29;;;;;;;5.78;5.25;;;;;;;;;;4989467;28;20050;-79
2023/06/28 06:26:55;;;;;;;5.50;5.15;;;;;;;;;;4990795;28;20125;-80
2023/06/28 06:29:22;;;;;;;8.07;5.13;;;;;;;;;;4990722;28;20477;-80
2023/06/28 06:31:48;;;;;;;5.35;4.95;;;;;;;;;;4982440;28;20113;-79
2023/06/28 06:34:14;;;;;;;8.80;5.60;;;;;;;;;;4988835;28;20129;-80
2023/06/28 06:36:40;;;;;;;5.45;5.05;;;;;;;;;;4991208;28;20038;-79
2023/06/28 06:39:06;;;;;;;4.70;4.40;;;;;;;;;;4990836;28;20046;-79
2023/06/28 06:41:32;;;;;;;5.53;5.13;;;;;;;;;;4990715;28;20098;-79
2023/06/28 06:43:58;;;;;;;6.00;5.50;;;;;;;;;;4990385;28;20145;-79
2023/06/28 06:46:24;;;;;;;5.57;5.18;;;;;;;;;;4984550;28;20038;-78
2023/06/28 06:48:51;;;;;;;8.23;5.68;;;;;;;;;;4986670;28;20042;-80
2023/06/28 06:51:17;;;;;;;7.30;6.60;;;;;;;;;;4990480;28;20068;-81
2023/06/28 06:53:43;;;;;;;5.40;5.00;;;;;;;;;;4990981;28;20030;-80
2023/06/28 06:56:09;;;;;;;5.78;5.38;;;;;;;;;;4993902;28;20417;-79
2023/06/28 06:58:36;;;;;;;4.70;4.38;;;;;;;;;;4975537;28;20026;-81
2023/06/28 07:01:02;;;;;;;6.05;5.43;;;;;;;;;;4994773;28;20022;-82
2023/06/28 07:03:28;;;;;;;5.60;5.10;;;;;;;;;;4993165;28;20050;-82
2023/06/28 07:05:54;;;;;;;5.65;5.25;;;;;;;;;;4992044;28;20035;-83
2023/06/28 07:08:20;;;;;;;5.63;5.13;;;;;;;;;;4992667;28;20480;-81
2023/06/28 07:10:46;;;;;;;9.00;5.13;;;;;;;;;;4994473;28;20116;-83
2023/06/28 07:13:14;;;;;;;5.15;4.85;;;;;;;;;;4995277;28;20030;-81
2023/06/28 07:15:40;;;;;;;6.00;5.40;;;;;;;;;;4996850;28;20037;-82
2023/06/28 07:18:06;;;;;;;5.53;5.13;;;;;;;;;;4976135;28;20034;-83
2023/06/28 07:20:32;;;;;;;7.05;5.20;;;;;;;;;;4995619;28;20089;-82
2023/06/28 07:22:58;;;;;;;6.10;5.50;;;;;;;;;;4976123;28;20042;-81
2023/06/28 07:25:24;;;;;;;5.32;5.03;;;;;;;;;;4975366;28;20069;-81
2023/06/28 07:27:50;;;;;;;7.82;5.65;;;;;;;;;;4994393;28;20038;-80
2023/06/28 07:30:16;;;;;;;5.80;5.30;;;;;;;;;;4994073;28;20584;-82
2023/06/28 07:32:42;;;;;;;5.55;5.15;;;;;;;;;;4994108;28;20061;-80
2023/06/28 07:35:08;;;;;;;6.13;5.53;;;;;;;;;;4992606;28;20062;-81
2023/06/28 07:37:35;;;;;;;5.88;4.80;;;;;;;;;;4996651;28;20056;-81
2023/06/28 07:40:01;;;;;;;5.68;5.25;;;;;;;;;;4994583;28;20120;-81
2023/06/28 07:42:30;;;;;;;5.35;4.95;;;;;;;;;;4976966;28;20444;-81
2023/06/28 07:44:58;;;;;;;4.10;3.90;;;;;;;;;;4998355;28;20038;-82
2023/06/28 07:47:24;;;;;;;4.40;4.10;;;;;;;;;;5010585;28;20038;-82
2023/06/28 07:49:50;;;;;;;4.68;4.25;;;;;;;;;;5003302;28;20145;-79
2023/06/28 07:52:16;;;;;;;5.95;4.45;;;;;;;;;;4999784;28;20034;-84
2023/06/28 07:54:43;;;;;;;5.25;4.82;;;;;;;;;;4999427;28;20571;-81
2023/06/28 07:57:09;;;;;;;4.97;4.43;;;;;;;;;;4999512;28;20045;-81
2023/06/28 07:59:35;;;;;;;5.03;4.70;;;;;;;;;;4997914;28;20030;-83
2023/06/28 08:02:01;;;;;;;4.63;4.32;;;;;;;;;;4994132;28;20092;-81
2023/06/28 08:04:27;;;;;;;4.90;4.50;;;;;;;;;;4997058;28;20042;-83
2023/06/28 08:06:53;;;;;;;4.95;4.57;;;;;;;;;;5002833;28;20034;-77
2023/06/28 08:09:19;;;;;;;8.27;4.68;;;;;;;;;;5001021;28;20034;-83
2023/06/28 08:11:45;;;;;;;5.80;5.00;;;;;;;;;;5002041;28;20034;-83
2023/06/28 08:14:11;;;;;;;5.25;4.90;;;;;;;;;;5003451;28;20038;-83
2023/06/28 08:16:37;;;;;;;5.05;4.75;;;;;;;;;;5009356;28;20106;-82
2023/06/28 08:19:03;;;;;;;5.60;5.10;;;;;;;;;;5009574;28;20038;-83
2023/06/28 08:21:29;;;;;;;5.28;4.95;;;;;;;;;;5008936;28;20056;-83
2023/06/28 08:23:55;;;;;;;5.40;5.00;;;;;;;;;;5009283;28;20103;-82
2023/06/28 08:26:21;;;;;;;5.78;5.28;;;;;;;;;;5011818;28;20030;-83
2023/06/28 08:28:47;;;;;;;5.18;4.78;;;;;;;;;;5010622;28;20014;-83
2023/06/28 08:31:13;;;;;;;5.93;5.45;;;;;;;;;;5000699;28;20026;-82
2023/06/28 08:33:39;;;;;;;6.38;5.78;;;;;;;;;;4997712;28;20049;-81
2023/06/28 08:36:05;;;;;;;5.70;5.30;;;;;;;;;;4996125;28;20035;-83
2023/06/28 08:38:31;;;;;;;7.82;5.00;;;;;;;;;;4994203;28;20044;-83
2023/06/28 08:40:57;;;;;;;6.63;4.72;;;;;;;;;;4994067;28;20030;-82
2023/06/28 08:43:23;;;;;;;5.60;5.20;;;;;;;;;;4978181;28;20038;-84
2023/06/28 08:45:49;;;;;;;5.53;4.78;;;;;;;;;;4996065;28;20040;-83
2023/06/28 08:48:15;;;;;;;5.57;4.90;;;;;;;;;;4994942;28;20046;-82
2023/06/28 08:50:43;;;;;;;5.22;4.82;;;;;;;;;;4996191;28;20034;-80
2023/06/28 08:53:11;;;;;;;5.13;4.70;;;;;;;;;;4995889;28;20045;-81
2023/06/28 08:55:37;;;;;;;4.75;4.45;;;;;;;;;;4996323;28;20049;-81
2023/06/28 08:58:03;;;;;;;5.05;4.65;;;;;;;;;;4978862;28;20030;-82
2023/06/28 09:00:29;;;;;;;7.20;4.57;;;;;;;;;;4994673;28;20065;-83
2023/06/28 09:02:56;;;;;;;5.20;4.80;;;;;;;;;;4996516;28;20533;-82
2023/06/28 09:05:23;;;;;;;4.35;3.95;;;;;;;;;;4997273;28;20453;-82
2023/06/28 09:07:50;;;;;;;4.40;3.30;;;;;;;;;;4997407;28;20073;-83
2023/06/28 09:10:16;;;;;;;4.85;4.55;;;;;;;;;;4996400;28;20182;-83
2023/06/28 09:12:42;;;;;;;5.57;4.03;;;;;;;;;;4998212;28;20062;-84
2023/06/28 09:15:08;;;;;;;6.97;4.40;;;;;;;;;;4999617;28;20049;-83
2023/06/28 09:17:34;;;;;;;4.07;3.78;;;;;;;;;;4997635;28;20038;-81
2023/06/28 09:20:04;;;;;;;6.63;4.03;;;;;;;;;;4998155;28;20118;-82
2023/06/28 09:22:30;;;;;;;5.25;4.80;;;;;;;;;;4995547;28;20518;-80
2023/06/28 09:25:00;;;;;;;4.97;4.57;;;;;;;;;;4992777;28;20054;-81
2023/06/28 09:27:27;;;;;;;6.72;4.25;;;;;;;;;;4997189;28;20034;-82
2023/06/28 09:30:16;;;;;;;4.82;4.28;;;;;;;;;;4996362;28;20065;-82
2023/06/28 09:32:45;;;;;;;4.47;4.18;;;;;;;;;;4994906;28;20049;-85
2023/06/28 09:35:11;;;;;;;5.50;5.00;;;;;;;;;;5012618;28;20030;-80
2023/06/28 09:37:38;;;;;;;4.93;4.57;;;;;;;;;;4997911;28;20034;-82
2023/06/28 09:40:08;;;;;;;8.18;4.97;;;;;;;;;;4977543;28;20057;-83
2023/06/28 09:42:44;;;;;;;7.03;4.40;;;;;;;;;;4993251;28;20029;-80
2023/06/28 09:45:10;;;;;;;5.13;4.63;;;;;;;;;;4993029;28;20053;-80
2023/06/28 09:47:36;;;;;;;5.00;4.60;;;;;;;;;;4992374;28;20104;-82
2023/06/28 09:50:02;;;;;;;4.20;3.90;;;;;;;;;;4994693;28;20469;-82
2023/06/28 09:52:36;;;;;;;4.40;4.00;;;;;;;;;;4995147;28;20041;-82
2023/06/28 09:55:03;;;;;;;10.85;5.13;;;;;;;;;;4996254;28;20030;-82
2023/06/28 09:57:30;;;;;;;6.68;5.18;;;;;;;;;;4996163;28;20042;-83
2023/06/28 09:59:56;;;;;;;4.68;4.32;;;;;;;;;;4994276;28;20583;-82
2023/06/28 10:02:22;;;;;;;5.45;5.05;;;;;;;;;;4996181;28;20088;-83
2023/06/28 10:04:48;;;;;;;5.43;4.95;;;;;;;;;;4994298;28;20705;-81
2023/06/28 10:07:14;;;;;;;5.57;5.28;;;;;;;;;;4977399;28;20324;-83
2023/06/28 10:09:40;;;;;;;12.52;4.78;;;;;;;;;;4993015;28;20509;-83
2023/06/28 10:12:12;;;;;;;7.70;4.72;;;;;;;;;;4994836;28;20038;-82
2023/06/28 10:14:38;;;;;;;4.82;4.30;;;;;;;;;;4994706;28;20034;-83
2023/06/28 10:17:05;;;;;;;4.53;4.13;;;;;;;;;;4993007;28;20046;-83
2023/06/28 10:19:31;;;;;;;8.00;5.15;;;;;;;;;;4996162;28;20409;-81
2023/06/28 10:21:56;;;;;;;5.65;4.93;;;;;;;;;;4992778;28;20190;-82
2023/06/28 10:24:23;;;;;;;5.50;4.63;;;;;;;;;;4975928;28;20513;-83
2023/06/28 10:26:49;;;;;;;4.63;4.10;;;;;;;;;;4993402;28;20031;-82
2023/06/28 10:29:15;;;;;;;6.28;4.95;;;;;;;;;;4992971;28;20145;-81
2023/06/28 10:31:41;;;;;;;5.80;4.75;;;;;;;;;;4992808;28;20029;-82
2023/06/28 10:34:07;;;;;;;4.13;3.28;;;;;;;;;;4994972;28;20046;-83
2023/06/28 10:36:33;;;;;;;6.75;4.75;;;;;;;;;;4994310;28;20113;-82
2023/06/28 10:38:59;;;;;;;4.60;4.10;;;;;;;;;;4992677;28;20043;-83
2023/06/28 10:41:25;;;;;;;5.45;4.28;;;;;;;;;;4994001;28;20046;-82
2023/06/28 10:44:01;;;;;;;7.53;4.78;;;;;;;;;;4992522;28;20046;-82
2023/06/28 10:46:27;;;;;;;6.95;4.90;;;;;;;;;;4995121;28;20034;-82
2023/06/28 10:48:54;;;;;;;12.85;5.10;;;;;;;;;;4997588;28;20058;-82
2023/06/28 10:51:21;;;;;;;14.63;6.03;;;;;;;;;;4995819;28;20386;-82
2023/06/28 10:53:53;;;;;;;8.75;4.63;;;;;;;;;;4997221;28;20049;-83
2023/06/28 10:56:20;;;;;;;10.75;4.22;;;;;;;;;;4997738;28;20061;-83
2023/06/28 10:58:47;;;;;;;4.32;3.92;;;;;;;;;;4997626;28;20046;-83
2023/06/28 11:01:34;;;;;;;5.43;5.00;;;;;;;;;;4995520;28;20571;-80
2023/06/28 11:04:12;;;;;;;5.68;5.18;;;;;;;;;;4996305;28;20189;-82
2023/06/28 11:06:39;;;;;;;7.57;5.25;;;;;;;;;;4995277;28;20038;-81
2023/06/28 11:09:13;;;;;;;10.75;4.40;;;;;;;;;;4997421;28;20034;-83
2023/06/28 11:11:41;;;;;;;8.68;4.80;;;;;;;;;;4996336;28;20505;-82
2023/06/28 11:14:17;;;;;;;7.75;4.38;;;;;;;;;;4994886;28;20136;-82
2023/06/28 11:16:46;;;;;;;7.55;4.50;;;;;;;;;;4998161;28;20505;-84
2023/06/28 11:19:13;;;;;;;9.65;4.93;;;;;;;;;;4999410;28;20046;-81
2023/06/28 11:21:39;;;;;;;4.07;3.55;;;;;;;;;;4998993;28;20034;-80
2023/06/28 11:24:06;;;;;;;5.03;4.45;;;;;;;;;;5014168;28;20089;-82
2023/06/28 11:26:38;;;;;;;5.68;4.75;;;;;;;;;;5007676;28;20133;-82
2023/06/28 11:29:17;;;;;;;8.45;4.07;;;;;;;;;;4998597;28;20030;-82
2023/06/28 11:31:46;;;;;;;12.05;4.93;;;;;;;;;;4997039;28;20044;-81
2023/06/28 11:34:13;;;;;;;6.63;5.30;;;;;;;;;;4995144;28;20053;-82
2023/06/28 11:36:39;;;;;;;5.82;5.40;;;;;;;;;;4994873;28;20049;-81
2023/06/28 11:39:06;;;;;;;5.20;4.28;;;;;;;;;;4993052;28;20084;-81
2023/06/28 11:41:33;;;;;;;10.20;5.40;;;;;;;;;;4993907;28;20038;-81
2023/06/28 11:44:04;;;;;;;5.03;4.43;;;;;;;;;;4994173;28;20065;-81
2023/06/28 11:46:32;;;;;;;5.03;4.60;;;;;;;;;;4977666;28;20481;-82
2023/06/28 11:48:59;;;;;;;7.03;4.38;;;;;;;;;;4993058;28;20054;-81
2023/06/28 11:51:26;;;;;;;5.30;4.80;;;;;;;;;;4995691;28;20062;-82
2023/06/28 11:53:55;;;;;;;4.57;4.28;;;;;;;;;;4994752;28;20038;-81
2023/06/28 11:56:34;;;;;;;3.90;3.60;;;;;;;;;;4996737;28;20533;-81
2023/06/28 11:59:15;;;;;;;4.07;3.75;;;;;;;;;;4997412;28;20038;-82
2023/06/28 12:01:41;;;;;;;7.35;5.32;;;;;;;;;;4994799;28;20069;-82
2023/06/28 12:04:14;;;;;;;6.50;5.28;;;;;;;;;;4995819;28;20456;-82
2023/06/28 12:06:41;;;;;;;6.40;5.90;;;;;;;;;;4995364;28;20038;-82
2023/06/28 12:09:18;;;;;;;5.05;4.65;;;;;;;;;;4994026;28;20485;-82
2023/06/28 12:12:01;;;;;;;6.10;5.70;;;;;;;;;;4993992;28;20030;-82
2023/06/28 12:14:27;;;;;;;8.35;5.22;;;;;;;;;;4995093;28;20121;-81
2023/06/28 12:16:54;;;;;;;6.00;5.60;;;;;;;;;;4993108;28;20042;-80
2023/06/28 12:19:20;;;;;;;7.70;5.93;;;;;;;;;;4994361;28;20023;-81
2023/06/28 12:21:46;;;;;;;6.05;5.57;;;;;;;;;;4976673;28;20048;-82
2023/06/28 12:24:13;;;;;;;6.30;5.75;;;;;;;;;;4994598;28;20066;-81
2023/06/28 12:26:42;;;;;;;10.07;5.57;;;;;;;;;;4998702;28;20105;-80
2023/06/28 12:29:08;;;;;;;11.50;6.00;;;;;;;;;;4993612;28;20568;-81
2023/06/28 12:31:42;;;;;;;8.30;6.00;;;;;;;;;;4994027;28;20077;-81
2023/06/28 12:34:08;;;;;;;9.50;6.50;;;;;;;;;;4976205;28;20069;-81
2023/06/28 12:36:34;;;;;;;6.03;5.50;;;;;;;;;;4992331;28;20583;-81
2023/06/28 12:39:00;;;;;;;8.98;6.22;;;;;;;;;;4993413;28;20643;-81
2023/06/28 12:41:26;;;;;;;4.55;4.25;;;;;;;;;;4996625;28;20509;-81
2023/06/28 12:43:56;;;;;;;4.18;3.97;;;;;;;;;;5003007;28;20042;-81
2023/06/28 12:46:23;;;;;;;5.28;4.88;;;;;;;;;;4969251;28;20035;-82
2023/06/28 12:48:49;;;;;;;7.07;4.90;;;;;;;;;;5001257;28;20066;-81
2023/06/28 12:51:15;;;;;;;4.95;4.57;;;;;;;;;;5002457;28;20046;-81
2023/06/28 12:53:41;;;;;;;5.50;5.00;;;;;;;;;;5003744;28;20058;-81
2023/06/28 12:56:07;;;;;;;5.80;3.95;;;;;;;;;;5003407;28;20038;-82
2023/06/28 12:58:33;;;;;;;4.63;4.20;;;;;;;;;;5004275;28;20042;-81
2023/06/28 13:00:59;;;;;;;4.88;4.50;;;;;;;;;;5000953;28;20116;-82
2023/06/28 13:03:25;;;;;;;4.18;3.85;;;;;;;;;;5001387;28;20054;-81
2023/06/28 13:05:52;;;;;;;4.38;3.97;;;;;;;;;;5000709;28;20030;-79
2023/06/28 13:08:19;;;;;;;4.28;3.95;;;;;;;;;;4999376;28;20128;-81
2023/06/28 13:10:45;;;;;;;7.72;4.22;;;;;;;;;;5001143;28;20035;-81
2023/06/28 13:13:11;;;;;;;4.65;4.35;;;;;;;;;;4987719;28;20125;-80
2023/06/28 13:15:37;;;;;;;4.53;4.13;;;;;;;;;;4996520;28;20033;-81
2023/06/28 13:18:03;;;;;;;5.47;4.97;;;;;;;;;;4993336;28;20416;-82
2023/06/28 13:20:30;;;;;;;9.15;5.80;;;;;;;;;;4992827;28;20030;-81
2023/06/28 13:22:56;;;;;;;6.05;5.47;;;;;;;;;;4994572;28;20049;-81
2023/06/28 13:25:21;;;;;;;6.28;5.55;;;;;;;;;;4993406;28;20120;-81
2023/06/28 13:27:48;;;;;;;5.40;4.90;;;;;;;;;;4992328;28;20502;-81
2023/06/28 13:30:14;;;;;;;5.65;5.15;;;;;;;;;;4994379;28;20038;-81
2023/06/28 13:32:39;;;;;;;6.43;5.65;;;;;;;;;;4993765;28;20112;-81
2023/06/28 13:35:06;;;;;;;11.45;5.78;;;;;;;;;;4992247;28;20049;-81
2023/06/28 13:37:32;;;;;;;4.90;4.50;;;;;;;;;;4994493;28;20627;-80
2023/06/28 13:39:58;;;;;;;4.43;4.13;;;;;;;;;;4991864;28;20030;-81
2023/06/28 13:42:24;;;;;;;5.13;4.72;;;;;;;;;;4991195;28;20042;-82
2023/06/28 13:44:50;;;;;;;6.68;4.80;;;;;;;;;;4990837;28;20042;-81
2023/06/28 13:47:16;;;;;;;4.75;4.35;;;;;;;;;;4992603;28;20125;-82
2023/06/28 13:49:42;;;;;;;4.85;4.40;;;;;;;;;;4992219;28;20061;-82
2023/06/28 13:52:09;;;;;;;4.60;4.30;;;;;;;;;;4991000;28;20042;-81
2023/06/28 13:54:36;;;;;;;4.68;4.35;;;;;;;;;;4992547;28;20057;-82
2023/06/28 13:57:02;;;;;;;6.90;4.38;;;;;;;;;;4991732;28;20039;-81
2023/06/28 13:59:28;;;;;;;7.88;3.88;;;;;;;;;;4991052;28;20276;-81
2023/06/28 14:01:54;;;;;;;3.92;3.60;;;;;;;;;;4992774;28;20401;-81
2023/06/28 14:04:20;;;;;;;5.47;3.65;;;;;;;;;;4992726;28;20089;-79
2023/06/28 14:06:46;;;;;;;4.90;4.20;;;;;;;;;;4991300;28;20034;-80
2023/06/28 14:09:12;;;;;;;4.97;3.10;;;;;;;;;;4976114;28;20073;-82
2023/06/28 14:11:38;;;;;;;5.65;3.30;;;;;;;;;;4992796;28;20041;-81
2023/06/28 14:14:04;;;;;;;3.70;3.30;;;;;;;;;;4996383;28;20042;-80
2023/06/28 14:16:30;;;;;;;3.95;3.10;;;;;;;;;;5000511;28;20088;-82
2023/06/28 14:18:57;;;;;;;2.75;2.55;;;;;;;;;;4983759;28;20440;-81
2023/06/28 14:21:22;;;;;;;7.72;3.83;;;;;;;;;;5009850;28;20022;-82
2023/06/28 14:23:48;;;;;;;4.35;4.05;;;;;;;;;;5009033;28;20521;-81
2023/06/28 14:26:15;;;;;;;4.85;4.45;;;;;;;;;;5010436;28;20046;-80
2023/06/28 14:28:41;;;;;;;4.68;4.38;;;;;;;;;;5011193;28;20120;-81
2023/06/28 14:31:07;;;;;;;7.22;5.28;;;;;;;;;;5007345;28;20042;-81
2023/06/28 14:33:34;;;;;;;5.85;5.45;;;;;;;;;;5008010;28;20038;-81
2023/06/28 14:36:00;;;;;;;5.75;5.35;;;;;;;;;;5004946;28;20034;-81